createdAt,value
2018-09-11T00:00:17.876Z,72.10
2018-09-11T00:00:51.411Z,72.20
2018-09-11T00:01:24.924Z,72.00
2018-09-11T00:01:58.444Z,72.10
2018-09-11T00:02:31.984Z,72.00
2018-09-11T00:03:05.304Z,72.30
2018-09-11T00:03:38.846Z,72.70
2018-09-11T00:04:12.388Z,72.90
2018-09-11T00:04:45.938Z,72.60
2018-09-11T00:05:19.475Z,72.70
2018-09-11T00:05:53.003Z,73.00
2018-09-11T00:06:26.505Z,73.40
2018-09-11T00:07:00.036Z,73.50
2018-09-11T00:07:33.527Z,73.30
2018-09-11T00:08:07.074Z,73.60
2018-09-11T00:08:40.633Z,74.90
2018-09-11T00:09:14.159Z,74.70
2018-09-11T00:09:47.713Z,75.00
2018-09-11T00:10:21.237Z,74.70
2018-09-11T00:10:54.740Z,74.70
2018-09-11T00:11:28.268Z,74.60
2018-09-11T00:12:01.816Z,74.20
2018-09-11T00:12:35.373Z,74.00
2018-09-11T00:13:08.912Z,74.20
2018-09-11T00:13:42.447Z,73.90
2018-09-11T00:14:16.004Z,73.60
2018-09-11T00:14:49.634Z,73.70
2018-09-11T00:15:23.346Z,73.30
2018-09-11T00:15:56.896Z,72.60
2018-09-11T00:16:30.419Z,72.90
2018-09-11T00:17:04.042Z,72.60
2018-09-11T00:17:37.560Z,72.00
2018-09-11T00:18:11.060Z,72.30
2018-09-11T00:18:44.589Z,72.70
2018-09-11T00:19:18.089Z,72.10
2018-09-11T00:19:51.649Z,72.30
2018-09-11T00:20:25.235Z,72.30
2018-09-11T00:20:58.764Z,71.50
2018-09-11T00:21:32.604Z,71.90
2018-09-11T00:22:06.170Z,71.80
2018-09-11T00:22:39.762Z,71.40
2018-09-11T00:23:13.247Z,71.50
2018-09-11T00:23:46.724Z,71.10
2018-09-11T00:24:20.235Z,71.00
2018-09-11T00:24:53.855Z,71.50
2018-09-11T00:25:27.367Z,71.90
2018-09-11T00:26:00.909Z,71.90
2018-09-11T00:26:34.433Z,71.30
2018-09-11T00:27:07.963Z,71.30
2018-09-11T00:27:41.492Z,70.90
2018-09-11T00:28:15.067Z,70.80
2018-09-11T00:28:49.121Z,70.30
2018-09-11T00:29:22.664Z,69.50
2018-09-11T00:29:56.191Z,69.20
2018-09-11T00:30:29.856Z,68.90
2018-09-11T00:31:03.431Z,68.90
2018-09-11T00:31:37.069Z,69.20
2018-09-11T00:32:10.608Z,69.40
2018-09-11T00:32:44.155Z,69.30
2018-09-11T00:33:17.669Z,69.40
2018-09-11T00:33:51.205Z,69.10
2018-09-11T00:34:24.802Z,68.60
2018-09-11T00:34:58.309Z,68.20
2018-09-11T00:35:31.829Z,68.20
2018-09-11T00:36:05.345Z,68.20
2018-09-11T00:36:39.149Z,68.80
2018-09-11T00:37:12.699Z,68.80
2018-09-11T00:37:46.197Z,68.80
2018-09-11T00:38:19.735Z,68.80
2018-09-11T00:38:53.280Z,68.80
2018-09-11T00:39:26.830Z,68.10
2018-09-11T00:40:00.359Z,67.80
2018-09-11T00:40:33.897Z,67.90
2018-09-11T00:41:07.705Z,67.80
2018-09-11T00:41:41.232Z,67.90
2018-09-11T00:42:14.749Z,68.00
2018-09-11T00:42:48.277Z,67.80
2018-09-11T00:43:21.808Z,67.50
2018-09-11T00:43:55.321Z,67.30
2018-09-11T00:44:28.842Z,66.60
2018-09-11T00:45:02.339Z,66.30
2018-09-11T00:45:35.833Z,67.30
2018-09-11T00:46:09.371Z,67.20
2018-09-11T00:46:42.870Z,66.20
2018-09-11T00:47:16.380Z,66.40
2018-09-11T00:47:49.937Z,66.00
2018-09-11T00:48:23.481Z,66.70
2018-09-11T00:48:57.021Z,66.80
2018-09-11T00:49:30.615Z,66.70
2018-09-11T00:50:04.402Z,66.50
2018-09-11T00:50:37.946Z,66.50
2018-09-11T00:51:11.502Z,67.10
2018-09-11T00:51:45.040Z,67.00
2018-09-11T00:52:18.587Z,66.80
2018-09-11T00:52:52.069Z,66.80
2018-09-11T00:53:25.590Z,66.60
2018-09-11T00:53:59.087Z,66.70
2018-09-11T00:54:32.645Z,66.10
2018-09-11T00:55:06.266Z,66.40
2018-09-11T00:55:39.801Z,66.60
2018-09-11T00:56:13.389Z,66.70
2018-09-11T00:56:46.887Z,66.20
2018-09-11T00:57:20.453Z,66.20
2018-09-11T00:57:53.957Z,66.80
2018-09-11T00:58:27.479Z,66.40
2018-09-11T00:59:00.985Z,66.30
2018-09-11T00:59:34.513Z,66.00
2018-09-11T01:00:08.295Z,65.40
2018-09-11T01:00:41.801Z,66.00
2018-09-11T01:01:15.321Z,67.30
2018-09-11T01:01:48.847Z,67.40
2018-09-11T01:02:22.385Z,67.10
2018-09-11T01:02:55.917Z,67.10
2018-09-11T01:03:29.433Z,67.00
2018-09-11T01:04:02.951Z,67.00
2018-09-11T01:04:36.543Z,66.50
2018-09-11T01:05:10.055Z,66.70
2018-09-11T01:05:43.551Z,66.70
2018-09-11T01:06:17.037Z,66.50
2018-09-11T01:06:50.597Z,66.50
2018-09-11T01:07:24.172Z,66.70
2018-09-11T01:07:57.707Z,67.50
2018-09-11T01:08:31.223Z,67.60
2018-09-11T01:09:08.451Z,68.10
2018-09-11T01:09:42.162Z,68.40
2018-09-11T01:10:15.767Z,68.60
2018-09-11T01:10:49.245Z,68.20
2018-09-11T01:11:22.832Z,67.90
2018-09-11T01:11:56.458Z,67.90
2018-09-11T01:12:30.024Z,68.10
2018-09-11T01:13:03.581Z,68.00
2018-09-11T01:13:37.250Z,67.90
2018-09-11T01:14:10.759Z,68.10
2018-09-11T01:14:44.423Z,68.30
2018-09-11T01:15:17.973Z,68.20
2018-09-11T01:15:51.543Z,69.10
2018-09-11T01:16:25.036Z,69.70
2018-09-11T01:16:58.563Z,70.10
2018-09-11T01:17:32.071Z,69.70
2018-09-11T01:18:05.913Z,69.10
2018-09-11T01:18:39.440Z,68.70
2018-09-11T01:19:12.959Z,68.90
2018-09-11T01:19:46.489Z,68.70
2018-09-11T01:20:19.981Z,68.60
2018-09-11T01:20:53.461Z,68.10
2018-09-11T01:21:26.985Z,68.00
2018-09-11T01:22:00.551Z,68.20
2018-09-11T01:22:34.146Z,67.60
2018-09-11T01:23:07.687Z,67.60
2018-09-11T01:23:41.182Z,67.00
2018-09-11T01:24:14.668Z,67.40
2018-09-11T01:24:48.222Z,67.40
2018-09-11T01:25:21.769Z,67.50
2018-09-11T01:25:55.293Z,67.00
2018-09-11T01:26:28.819Z,66.60
2018-09-11T01:27:02.343Z,67.10
2018-09-11T01:27:35.897Z,68.20
2018-09-11T01:28:09.434Z,69.40
2018-09-11T01:28:42.950Z,69.10
2018-09-11T01:29:16.473Z,68.70
2018-09-11T01:29:49.988Z,68.50
2018-09-11T01:30:23.781Z,68.40
2018-09-11T01:30:57.291Z,68.30
2018-09-11T01:31:31.273Z,68.10
2018-09-11T01:32:04.770Z,68.10
2018-09-11T01:32:38.271Z,67.50
2018-09-11T01:33:11.801Z,67.90
2018-09-11T01:33:45.303Z,68.50
2018-09-11T01:34:18.845Z,68.50
2018-09-11T01:34:52.341Z,69.30
2018-09-11T01:35:25.860Z,69.40
2018-09-11T01:35:59.391Z,70.20
2018-09-11T01:36:32.957Z,70.20
2018-09-11T01:37:06.644Z,69.90
2018-09-11T01:37:40.168Z,69.10
2018-09-11T01:38:13.678Z,68.60
2018-09-11T01:38:47.205Z,69.00
2018-09-11T01:39:20.720Z,68.80
2018-09-11T01:39:54.266Z,69.50
2018-09-11T01:40:27.817Z,69.90
2018-09-11T01:41:01.336Z,70.00
2018-09-11T01:41:34.857Z,70.70
2018-09-11T01:42:08.419Z,70.80
2018-09-11T01:42:41.926Z,70.60
2018-09-11T01:43:15.420Z,70.30
2018-09-11T01:43:49.315Z,70.10
2018-09-11T01:44:22.794Z,70.40
2018-09-11T01:44:56.291Z,71.30
2018-09-11T01:45:29.824Z,71.90
2018-09-11T01:46:03.410Z,71.60
2018-09-11T01:46:36.932Z,71.50
2018-09-11T01:47:10.442Z,71.90
2018-09-11T01:47:43.956Z,71.90
2018-09-11T01:48:17.470Z,71.70
2018-09-11T01:48:50.970Z,72.10
2018-09-11T01:49:24.470Z,72.50
2018-09-11T01:49:58.006Z,72.30
2018-09-11T01:50:31.539Z,72.60
2018-09-11T01:51:05.278Z,73.20
2018-09-11T01:51:38.852Z,72.80
2018-09-11T01:52:12.375Z,72.30
2018-09-11T01:52:45.919Z,72.10
2018-09-11T01:53:19.385Z,72.70
2018-09-11T01:53:52.872Z,72.80
2018-09-11T01:54:26.368Z,72.70
2018-09-11T01:54:59.843Z,72.70
2018-09-11T01:55:33.334Z,72.30
2018-09-11T01:56:06.885Z,71.90
2018-09-11T01:56:40.416Z,72.10
2018-09-11T01:57:13.987Z,71.90
2018-09-11T01:57:47.534Z,72.30
2018-09-11T01:58:21.049Z,72.20
2018-09-11T01:58:54.600Z,72.20
2018-09-11T01:59:28.123Z,72.40
2018-09-11T02:00:01.675Z,71.90
2018-09-11T02:00:35.181Z,71.70
2018-09-11T02:01:08.744Z,72.40
2018-09-11T02:01:42.338Z,73.10
2018-09-11T02:02:15.848Z,74.10
2018-09-11T02:02:49.378Z,74.60
2018-09-11T02:03:22.873Z,74.50
2018-09-11T02:03:56.458Z,74.10
2018-09-11T02:04:29.991Z,74.40
2018-09-11T02:05:03.529Z,74.60
2018-09-11T02:05:37.056Z,75.10
2018-09-11T02:06:10.585Z,76.20
2018-09-11T02:06:44.155Z,76.50
2018-09-11T02:07:17.885Z,77.10
2018-09-11T02:07:51.389Z,77.10
2018-09-11T02:08:24.900Z,77.10
2018-09-11T02:08:58.459Z,77.80
2018-09-11T02:09:32.067Z,77.40
2018-09-11T02:10:05.759Z,77.10
2018-09-11T02:10:39.349Z,77.00
2018-09-11T02:11:12.867Z,77.00
2018-09-11T02:11:46.439Z,77.40
2018-09-11T02:12:19.996Z,76.70
2018-09-11T02:12:53.492Z,78.10
2018-09-11T02:13:27.021Z,78.90
2018-09-11T02:14:00.521Z,78.10
2018-09-11T02:14:34.018Z,78.70
2018-09-11T02:15:08.442Z,79.20
2018-09-11T02:15:41.968Z,79.00
2018-09-11T02:16:15.537Z,79.10
2018-09-11T02:16:49.056Z,78.70
2018-09-11T02:17:22.641Z,78.80
2018-09-11T02:17:56.191Z,78.70
2018-09-11T02:18:29.698Z,79.20
2018-09-11T02:19:03.423Z,80.50
2018-09-11T02:19:37.091Z,80.80
2018-09-11T02:20:10.673Z,81.00
2018-09-11T02:20:44.145Z,81.20
2018-09-11T02:21:17.632Z,81.70
2018-09-11T02:21:51.336Z,81.60
2018-09-11T02:22:24.875Z,81.70
2018-09-11T02:22:58.384Z,82.90
2018-09-11T02:23:31.892Z,83.60
2018-09-11T02:24:05.649Z,84.30
2018-09-11T02:24:39.232Z,84.40
2018-09-11T02:25:12.771Z,85.20
2018-09-11T02:25:46.344Z,85.80
2018-09-11T02:26:19.847Z,86.30
2018-09-11T02:26:53.355Z,86.50
2018-09-11T02:27:26.863Z,86.70
2018-09-11T02:28:00.415Z,86.80
2018-09-11T02:28:33.931Z,86.80
2018-09-11T02:29:07.453Z,87.30
2018-09-11T02:29:40.968Z,87.70
2018-09-11T02:30:14.498Z,88.50
2018-09-11T02:30:48.013Z,88.90
2018-09-11T02:31:21.519Z,89.30
2018-09-11T02:31:55.037Z,89.00
2018-09-11T02:32:28.559Z,88.90
2018-09-11T02:33:02.143Z,88.60
2018-09-11T02:33:35.665Z,88.30
2018-09-11T02:34:09.187Z,88.30
2018-09-11T02:34:42.705Z,89.60
2018-09-11T02:35:16.259Z,89.90
2018-09-11T02:35:49.851Z,89.30
2018-09-11T02:36:23.337Z,89.00
2018-09-11T02:36:56.847Z,89.20
2018-09-11T02:37:30.360Z,89.40
2018-09-11T02:38:04.118Z,89.20
2018-09-11T02:38:37.687Z,89.30
2018-09-11T02:39:12.155Z,89.00
2018-09-11T02:39:45.661Z,88.90
2018-09-11T02:40:19.221Z,88.90
2018-09-11T02:40:52.781Z,88.50
2018-09-11T02:41:26.314Z,88.60
2018-09-11T02:41:59.843Z,88.90
2018-09-11T02:42:33.358Z,89.00
2018-09-11T02:43:06.899Z,89.30
2018-09-11T02:43:40.405Z,90.50
2018-09-11T02:44:13.935Z,90.60
2018-09-11T02:44:47.444Z,90.50
2018-09-11T02:45:23.559Z,90.30
2018-09-11T02:45:57.115Z,89.60
2018-09-11T02:46:30.711Z,90.30
2018-09-11T02:47:04.235Z,90.10
2018-09-11T02:47:37.749Z,90.30
2018-09-11T02:48:11.277Z,89.70
2018-09-11T02:48:44.803Z,90.20
2018-09-11T02:49:18.303Z,90.10
2018-09-11T02:49:51.831Z,90.30
2018-09-11T02:50:25.361Z,90.30
2018-09-11T02:50:58.897Z,90.00
2018-09-11T02:51:32.858Z,89.50
2018-09-11T02:52:06.595Z,89.50
2018-09-11T02:52:40.100Z,89.60
2018-09-11T02:53:13.611Z,89.20
2018-09-11T02:53:47.134Z,89.30
2018-09-11T02:54:20.733Z,89.60
2018-09-11T02:54:54.249Z,90.80
2018-09-11T02:55:27.794Z,92.20
2018-09-11T02:56:01.316Z,92.40
2018-09-11T02:56:34.811Z,92.60
2018-09-11T02:57:08.297Z,92.10
2018-09-11T02:57:41.767Z,92.20
2018-09-11T02:58:15.369Z,92.30
2018-09-11T02:58:48.901Z,92.20
2018-09-11T02:59:22.427Z,91.90
2018-09-11T02:59:55.964Z,91.60
2018-09-11T03:00:29.588Z,91.40
2018-09-11T03:01:03.099Z,91.50
2018-09-11T03:01:36.613Z,91.90
2018-09-11T03:02:10.109Z,92.10
2018-09-11T03:02:43.626Z,92.60
2018-09-11T03:03:17.147Z,92.70
2018-09-11T03:03:50.709Z,92.70
2018-09-11T03:04:24.237Z,92.20
2018-09-11T03:04:57.786Z,92.90
2018-09-11T03:05:31.289Z,93.40
2018-09-11T03:06:04.837Z,93.10
2018-09-11T03:06:38.343Z,92.80
2018-09-11T03:07:11.849Z,92.50
2018-09-11T03:07:45.358Z,92.20
2018-09-11T03:08:18.875Z,92.30
2018-09-11T03:08:52.331Z,92.00
2018-09-11T03:09:25.849Z,91.50
2018-09-11T03:09:59.385Z,91.60
2018-09-11T03:10:32.880Z,92.20
2018-09-11T03:11:06.508Z,92.20
2018-09-11T03:11:40.118Z,92.00
2018-09-11T03:12:13.691Z,92.00
2018-09-11T03:12:47.168Z,92.20
2018-09-11T03:13:20.699Z,92.10
2018-09-11T03:13:54.207Z,91.90
2018-09-11T03:14:27.730Z,92.30
2018-09-11T03:15:01.264Z,92.90
2018-09-11T03:15:34.759Z,92.80
2018-09-11T03:16:08.305Z,92.90
2018-09-11T03:16:41.803Z,93.20
2018-09-11T03:17:15.279Z,93.40
2018-09-11T03:17:48.807Z,93.50
2018-09-11T03:18:22.314Z,93.10
2018-09-11T03:18:55.833Z,92.80
2018-09-11T03:19:29.315Z,93.00
2018-09-11T03:20:02.866Z,93.20
2018-09-11T03:20:36.456Z,93.70
2018-09-11T03:21:09.959Z,94.90
2018-09-11T03:21:43.511Z,95.30
2018-09-11T03:22:17.017Z,94.90
2018-09-11T03:22:50.496Z,94.20
2018-09-11T03:23:23.997Z,94.10
2018-09-11T03:23:57.509Z,93.90
2018-09-11T03:24:31.020Z,94.40
2018-09-11T03:25:04.619Z,94.60
2018-09-11T03:25:38.139Z,94.00
2018-09-11T03:26:11.659Z,94.50
2018-09-11T03:26:45.229Z,94.10
2018-09-11T03:27:18.758Z,93.70
2018-09-11T03:27:52.265Z,93.60
2018-09-11T03:28:25.770Z,93.00
2018-09-11T03:28:59.280Z,92.60
2018-09-11T03:29:32.797Z,92.30
2018-09-11T03:30:07.873Z,92.20
2018-09-11T03:30:41.397Z,92.20
2018-09-11T03:31:14.946Z,92.50
2018-09-11T03:31:48.463Z,92.30
2018-09-11T03:32:21.980Z,91.60
2018-09-11T03:32:55.520Z,92.20
2018-09-11T03:33:29.021Z,91.50
2018-09-11T03:34:02.547Z,91.60
2018-09-11T03:34:36.054Z,91.80
2018-09-11T03:35:09.550Z,91.70
2018-09-11T03:35:43.233Z,91.60
2018-09-11T03:36:16.747Z,92.50
2018-09-11T03:36:50.247Z,92.90
2018-09-11T03:37:23.750Z,92.80
2018-09-11T03:37:57.254Z,93.30
2018-09-11T03:38:30.759Z,93.40
2018-09-11T03:39:06.300Z,93.40
2018-09-11T03:39:39.823Z,93.20
2018-09-11T03:40:13.304Z,92.80
2018-09-11T03:40:46.861Z,93.10
2018-09-11T03:41:20.366Z,94.00
2018-09-11T03:41:53.886Z,94.50
2018-09-11T03:42:27.411Z,94.90
2018-09-11T03:43:00.943Z,94.80
2018-09-11T03:43:34.461Z,94.80
2018-09-11T03:44:07.940Z,95.90
2018-09-11T03:44:41.435Z,96.00
2018-09-11T03:45:14.939Z,96.00
2018-09-11T03:45:49.273Z,95.70
2018-09-11T03:46:22.789Z,95.20
2018-09-11T03:46:56.330Z,95.20
2018-09-11T03:47:29.794Z,95.40
2018-09-11T03:48:03.298Z,94.80
2018-09-11T03:48:36.837Z,94.70
2018-09-11T03:49:10.322Z,94.40
2018-09-11T03:49:43.829Z,93.80
2018-09-11T03:50:17.371Z,93.80
2018-09-11T03:50:51.472Z,93.50
2018-09-11T03:51:24.969Z,93.40
2018-09-11T03:51:58.538Z,93.10
2018-09-11T03:52:32.017Z,93.00
2018-09-11T03:53:06.117Z,93.40
2018-09-11T03:53:39.611Z,93.00
2018-09-11T03:54:13.079Z,92.90
2018-09-11T03:54:46.575Z,92.70
2018-09-11T03:55:20.092Z,92.30
2018-09-11T03:55:53.608Z,91.90
2018-09-11T03:56:27.126Z,91.50
2018-09-11T03:57:00.629Z,90.80
2018-09-11T03:57:34.161Z,90.50
2018-09-11T03:58:07.696Z,90.30
2018-09-11T03:58:41.189Z,90.80
2018-09-11T03:59:14.766Z,90.30
2018-09-11T03:59:48.245Z,90.20
2018-09-11T04:00:21.730Z,90.20
2018-09-11T04:00:55.233Z,89.80
2018-09-11T04:01:28.806Z,89.70
2018-09-11T04:02:02.368Z,89.80
2018-09-11T04:02:35.881Z,89.60
2018-09-11T04:03:09.527Z,89.20
2018-09-11T04:03:43.070Z,88.80
2018-09-11T04:04:16.597Z,88.70
2018-09-11T04:04:50.117Z,89.30
2018-09-11T04:05:23.713Z,89.30
2018-09-11T04:05:57.218Z,89.10
2018-09-11T04:06:30.729Z,89.20
2018-09-11T04:07:04.296Z,89.10
2018-09-11T04:07:37.830Z,89.20
2018-09-11T04:08:11.346Z,89.00
2018-09-11T04:08:44.860Z,89.10
2018-09-11T04:09:18.396Z,88.90
2018-09-11T04:09:51.891Z,89.50
2018-09-11T04:10:25.432Z,89.60
2018-09-11T04:10:58.950Z,89.70
2018-09-11T04:11:32.483Z,90.00
2018-09-11T04:12:06.078Z,90.70
2018-09-11T04:12:39.566Z,90.60
2018-09-11T04:13:13.085Z,90.20
2018-09-11T04:13:47.281Z,90.60
2018-09-11T04:14:20.870Z,90.70
2018-09-11T04:14:54.364Z,91.20
2018-09-11T04:15:27.877Z,91.20
2018-09-11T04:16:01.367Z,91.20
2018-09-11T04:16:34.904Z,91.30
2018-09-11T04:17:08.405Z,91.60
2018-09-11T04:17:41.984Z,91.70
2018-09-11T04:18:15.556Z,91.60
2018-09-11T04:18:49.068Z,91.60
2018-09-11T04:19:22.583Z,91.60
2018-09-11T04:19:56.091Z,92.00
2018-09-11T04:20:29.612Z,91.90
2018-09-11T04:21:03.144Z,92.40
2018-09-11T04:21:36.663Z,92.90
2018-09-11T04:22:13.365Z,92.90
2018-09-11T04:22:46.961Z,92.80
2018-09-11T04:23:20.472Z,93.00
2018-09-11T04:23:54.003Z,92.90
2018-09-11T04:24:27.528Z,94.00
2018-09-11T04:25:01.092Z,94.20
2018-09-11T04:25:34.670Z,94.20
2018-09-11T04:26:08.958Z,94.20
2018-09-11T04:26:42.512Z,94.10
2018-09-11T04:27:16.098Z,93.80
2018-09-11T04:27:49.627Z,93.80
2018-09-11T04:28:23.139Z,94.00
2018-09-11T04:28:56.724Z,93.90
2018-09-11T04:29:30.230Z,94.10
2018-09-11T04:30:04.208Z,94.50
2018-09-11T04:30:37.732Z,94.70
2018-09-11T04:31:11.290Z,94.30
2018-09-11T04:31:44.812Z,94.30
2018-09-11T04:32:18.350Z,93.90
2018-09-11T04:32:51.909Z,94.50
2018-09-11T04:33:25.656Z,94.50
2018-09-11T04:33:59.290Z,94.40
2018-09-11T04:34:32.918Z,93.80
2018-09-11T04:35:06.530Z,93.90
2018-09-11T04:35:40.108Z,93.50
2018-09-11T04:36:13.667Z,93.00
2018-09-11T04:36:47.174Z,92.60
2018-09-11T04:37:20.682Z,93.20
2018-09-11T04:37:54.343Z,94.00
2018-09-11T04:38:27.882Z,93.70
2018-09-11T04:39:01.392Z,93.30
2018-09-11T04:39:34.941Z,92.60
2018-09-11T04:40:08.538Z,92.50
2018-09-11T04:40:42.038Z,92.40
2018-09-11T04:41:15.524Z,92.30
2018-09-11T04:41:49.044Z,92.40
2018-09-11T04:42:22.532Z,92.40
2018-09-11T04:42:56.094Z,92.20
2018-09-11T04:43:29.575Z,92.60
2018-09-11T04:44:03.153Z,92.90
2018-09-11T04:44:36.707Z,93.10
2018-09-11T04:45:10.236Z,93.00
2018-09-11T04:45:43.742Z,92.80
2018-09-11T04:46:17.298Z,92.30
2018-09-11T04:46:50.836Z,91.90
2018-09-11T04:47:24.340Z,91.90
2018-09-11T04:47:57.856Z,92.20
2018-09-11T04:48:31.332Z,93.20
2018-09-11T04:49:04.929Z,93.90
2018-09-11T04:49:38.479Z,93.90
2018-09-11T04:50:11.991Z,93.70
2018-09-11T04:50:45.503Z,94.20
2018-09-11T04:51:19.038Z,94.10
2018-09-11T04:51:52.558Z,93.90
2018-09-11T04:52:26.051Z,93.50
2018-09-11T04:52:59.564Z,93.50
2018-09-11T04:53:33.049Z,93.70
2018-09-11T04:54:06.590Z,93.50
2018-09-11T04:54:40.226Z,93.40
2018-09-11T04:55:13.755Z,93.80
2018-09-11T04:55:47.279Z,93.70
2018-09-11T04:56:20.786Z,93.70
2018-09-11T04:56:54.271Z,94.20
2018-09-11T04:57:27.817Z,93.80
2018-09-11T04:58:01.312Z,93.50
2018-09-11T04:58:35.021Z,93.00
2018-09-11T04:59:08.582Z,93.30
2018-09-11T04:59:42.204Z,93.50
2018-09-11T05:00:15.786Z,93.90
2018-09-11T05:00:49.328Z,94.10
2018-09-11T05:01:22.888Z,94.20
2018-09-11T05:01:56.379Z,94.00
2018-09-11T05:02:29.880Z,93.40
2018-09-11T05:03:03.417Z,93.20
2018-09-11T05:03:36.976Z,93.70
2018-09-11T05:04:10.482Z,94.20
2018-09-11T05:04:43.958Z,95.20
2018-09-11T05:05:17.508Z,95.30
2018-09-11T05:05:51.078Z,95.20
2018-09-11T05:06:24.596Z,94.50
2018-09-11T05:06:58.127Z,94.30
2018-09-11T05:07:31.669Z,93.70
2018-09-11T05:08:05.254Z,93.10
2018-09-11T05:08:38.759Z,92.90
2018-09-11T05:09:12.310Z,92.30
2018-09-11T05:09:45.834Z,91.90
2018-09-11T05:10:19.326Z,92.10
2018-09-11T05:10:53.800Z,92.00
2018-09-11T05:11:27.333Z,91.70
2018-09-11T05:12:00.852Z,91.90
2018-09-11T05:12:34.391Z,92.20
2018-09-11T05:13:07.916Z,92.30
2018-09-11T05:13:41.404Z,92.20
2018-09-11T05:14:14.964Z,92.10
2018-09-11T05:14:48.489Z,91.80
2018-09-11T05:15:21.972Z,91.50
2018-09-11T05:15:55.488Z,91.70
2018-09-11T05:16:29.048Z,91.50
2018-09-11T05:17:02.562Z,91.00
2018-09-11T05:17:36.116Z,91.20
2018-09-11T05:18:09.738Z,91.10
2018-09-11T05:18:43.226Z,91.10
2018-09-11T05:19:16.787Z,90.60
2018-09-11T05:19:50.433Z,90.30
2018-09-11T05:20:23.963Z,90.20
2018-09-11T05:20:57.486Z,90.10
2018-09-11T05:21:30.966Z,89.90
2018-09-11T05:22:04.670Z,89.30
2018-09-11T05:22:38.153Z,89.30
2018-09-11T05:23:11.632Z,89.60
2018-09-11T05:23:45.177Z,89.80
2018-09-11T05:24:18.690Z,90.70
2018-09-11T05:24:52.202Z,90.70
2018-09-11T05:25:25.722Z,90.70
2018-09-11T05:25:59.308Z,90.90
2018-09-11T05:26:32.859Z,90.10
2018-09-11T05:27:06.464Z,89.50
2018-09-11T05:27:39.987Z,89.70
2018-09-11T05:28:13.491Z,89.20
2018-09-11T05:28:46.993Z,88.70
2018-09-11T05:29:20.545Z,88.30
2018-09-11T05:29:54.064Z,88.50
2018-09-11T05:30:27.591Z,88.40
2018-09-11T05:31:01.126Z,88.60
2018-09-11T05:31:34.628Z,88.70
2018-09-11T05:32:08.175Z,88.90
2018-09-11T05:32:41.685Z,89.00
2018-09-11T05:33:15.217Z,89.20
2018-09-11T05:33:48.719Z,89.90
2018-09-11T05:34:22.244Z,90.20
2018-09-11T05:34:55.793Z,90.50
2018-09-11T05:35:29.365Z,90.10
2018-09-11T05:36:02.932Z,89.50
2018-09-11T05:36:36.423Z,89.90
2018-09-11T05:37:09.950Z,89.70
2018-09-11T05:37:43.447Z,89.70
2018-09-11T05:38:16.944Z,89.20
2018-09-11T05:38:50.491Z,89.30
2018-09-11T05:39:23.983Z,89.20
2018-09-11T05:39:57.597Z,88.60
2018-09-11T05:40:31.157Z,88.20
2018-09-11T05:41:04.848Z,87.80
2018-09-11T05:41:38.422Z,87.70
2018-09-11T05:42:11.940Z,87.10
2018-09-11T05:42:45.443Z,87.20
2018-09-11T05:43:19.248Z,87.30
2018-09-11T05:43:52.823Z,86.90
2018-09-11T05:44:26.336Z,87.30
2018-09-11T05:45:00.127Z,86.70
2018-09-11T05:45:33.664Z,86.20
2018-09-11T05:46:07.191Z,86.30
2018-09-11T05:46:40.698Z,85.90
2018-09-11T05:47:14.278Z,85.70
2018-09-11T05:47:47.738Z,85.70
2018-09-11T05:48:21.271Z,84.30
2018-09-11T05:48:54.864Z,84.40
2018-09-11T05:49:28.444Z,84.10
2018-09-11T05:50:01.993Z,84.20
2018-09-11T05:50:35.499Z,84.10
2018-09-11T05:51:09.045Z,83.70
2018-09-11T05:51:42.575Z,83.10
2018-09-11T05:52:16.104Z,83.10
2018-09-11T05:52:49.631Z,83.50
2018-09-11T05:53:23.157Z,84.10
2018-09-11T05:53:56.668Z,83.40
2018-09-11T05:54:30.248Z,83.40
2018-09-11T05:55:04.064Z,82.40
2018-09-11T05:55:37.576Z,82.90
2018-09-11T05:56:11.114Z,83.30
2018-09-11T05:56:44.702Z,83.50
2018-09-11T05:57:18.227Z,83.10
2018-09-11T05:57:51.947Z,82.90
2018-09-11T05:58:25.541Z,81.80
2018-09-11T05:58:59.039Z,81.40
2018-09-11T05:59:32.537Z,82.10
2018-09-11T06:00:06.865Z,82.40
2018-09-11T06:00:40.379Z,82.20
2018-09-11T06:01:13.933Z,81.60
2018-09-11T06:01:47.510Z,81.30
2018-09-11T06:02:21.027Z,80.50
2018-09-11T06:02:54.541Z,80.30
2018-09-11T06:03:28.031Z,79.90
2018-09-11T06:04:01.572Z,79.40
2018-09-11T06:04:35.083Z,78.90
2018-09-11T06:05:08.638Z,78.00
2018-09-11T06:05:42.249Z,78.00
2018-09-11T06:06:15.731Z,78.00
2018-09-11T06:06:49.281Z,77.60
2018-09-11T06:07:22.798Z,77.40
2018-09-11T06:07:56.310Z,77.00
2018-09-11T06:08:29.857Z,76.60
2018-09-11T06:09:05.846Z,75.70
2018-09-11T06:09:39.341Z,76.10
2018-09-11T06:10:12.885Z,75.90
2018-09-11T06:10:46.396Z,75.70
2018-09-11T06:11:19.963Z,75.40
2018-09-11T06:11:53.479Z,75.90
2018-09-11T06:12:26.988Z,76.20
2018-09-11T06:13:00.531Z,76.30
2018-09-11T06:13:34.080Z,76.20
2018-09-11T06:14:07.642Z,75.80
2018-09-11T06:14:41.165Z,75.70
2018-09-11T06:15:14.665Z,75.70
2018-09-11T06:15:48.159Z,76.10
2018-09-11T06:16:21.800Z,76.60
2018-09-11T06:16:55.260Z,76.30
2018-09-11T06:17:28.749Z,75.60
2018-09-11T06:18:02.305Z,75.50
2018-09-11T06:18:35.846Z,75.60
2018-09-11T06:19:09.422Z,76.00
2018-09-11T06:19:42.934Z,75.60
2018-09-11T06:20:16.436Z,75.60
2018-09-11T06:20:49.961Z,75.40
2018-09-11T06:21:23.455Z,76.20
2018-09-11T06:21:56.956Z,75.30
2018-09-11T06:22:30.471Z,75.60
2018-09-11T06:23:04.045Z,76.60
2018-09-11T06:23:37.554Z,76.30
2018-09-11T06:24:11.068Z,76.20
2018-09-11T06:24:44.593Z,75.20
2018-09-11T06:25:18.106Z,75.10
2018-09-11T06:25:51.823Z,75.70
2018-09-11T06:26:25.239Z,75.60
2018-09-11T06:26:58.763Z,74.80
2018-09-11T06:27:32.273Z,74.20
2018-09-11T06:28:05.856Z,72.90
2018-09-11T06:28:39.407Z,72.80
2018-09-11T06:29:12.961Z,72.40
2018-09-11T06:29:46.423Z,71.90
2018-09-11T06:30:20.021Z,70.70
2018-09-11T06:30:53.537Z,70.30
2018-09-11T06:31:27.062Z,70.00
2018-09-11T06:32:00.655Z,70.10
2018-09-11T06:32:34.165Z,70.50
2018-09-11T06:33:07.689Z,70.00
2018-09-11T06:33:41.203Z,71.00
2018-09-11T06:34:14.682Z,70.50
2018-09-11T06:34:48.149Z,70.70
2018-09-11T06:35:21.730Z,71.40
2018-09-11T06:35:55.437Z,72.00
2018-09-11T06:36:28.965Z,71.50
2018-09-11T06:37:02.573Z,71.40
2018-09-11T06:37:36.083Z,70.50
2018-09-11T06:38:09.600Z,70.90
2018-09-11T06:38:43.075Z,71.00
2018-09-11T06:39:16.557Z,69.90
2018-09-11T06:39:50.147Z,72.70
2018-09-11T06:40:23.643Z,73.30
2018-09-11T06:40:57.236Z,72.80
2018-09-11T06:41:30.766Z,72.70
2018-09-11T06:42:04.345Z,71.70
2018-09-11T06:42:37.875Z,72.30
2018-09-11T06:43:11.525Z,71.80
2018-09-11T06:43:45.051Z,71.70
2018-09-11T06:44:18.561Z,71.10
2018-09-11T06:44:52.074Z,71.70
2018-09-11T06:45:25.571Z,70.40
2018-09-11T06:45:59.085Z,69.80
2018-09-11T06:46:33.047Z,69.50
2018-09-11T06:47:06.672Z,70.40
2018-09-11T06:47:40.148Z,70.00
2018-09-11T06:48:13.664Z,70.30
2018-09-11T06:48:47.289Z,68.40
2018-09-11T06:49:20.780Z,68.10
2018-09-11T06:49:54.305Z,68.10
2018-09-11T06:50:27.805Z,68.30
2018-09-11T06:51:01.429Z,67.70
2018-09-11T06:51:34.996Z,67.40
2018-09-11T06:52:08.539Z,68.10
2018-09-11T06:52:42.071Z,67.40
2018-09-11T06:53:15.603Z,67.00
2018-09-11T06:53:49.119Z,67.80
2018-09-11T06:54:22.651Z,67.10
2018-09-11T06:54:56.207Z,68.50
2018-09-11T06:55:29.732Z,68.10
2018-09-11T06:56:03.235Z,68.10
2018-09-11T06:56:36.787Z,68.40
2018-09-11T06:57:10.283Z,67.70
2018-09-11T06:57:43.792Z,68.20
2018-09-11T06:58:17.310Z,68.40
2018-09-11T06:58:50.820Z,68.90
2018-09-11T06:59:24.336Z,68.10
2018-09-11T06:59:57.891Z,69.10
2018-09-11T07:00:31.431Z,69.10
2018-09-11T07:01:05.093Z,68.50
2018-09-11T07:01:38.783Z,68.70
2018-09-11T07:02:12.255Z,69.40
2018-09-11T07:02:45.789Z,69.40
2018-09-11T07:03:19.327Z,69.60
2018-09-11T07:03:52.891Z,70.20
2018-09-11T07:04:26.405Z,69.20
2018-09-11T07:04:59.951Z,69.10
2018-09-11T07:05:33.509Z,69.00
2018-09-11T07:06:07.031Z,69.10
2018-09-11T07:06:40.547Z,70.60
2018-09-11T07:07:14.039Z,71.50
2018-09-11T07:07:47.550Z,71.70
2018-09-11T07:08:21.102Z,71.50
2018-09-11T07:08:54.660Z,72.20
2018-09-11T07:09:28.180Z,72.80
2018-09-11T07:10:01.851Z,72.60
2018-09-11T07:10:35.381Z,72.60
2018-09-11T07:11:08.921Z,72.90
2018-09-11T07:11:42.433Z,72.30
2018-09-11T07:12:15.955Z,72.20